KIWD/IWD METAR and TAF weather

Enter ICAO airport designator
Station Type Date Time Source
KIWD METAR 2019/04/24 15:56 UTC NOAA

KIWD 241556Z AUTO 20013G20KT 10SM BKN110 14/02 A2982 RMK AO2 SLP102 T01440017 PNO $


Station Type Date Time Source
KIWD Decoded METAR 2019/04/24 15:56 UTC NOAA

Ironwood, Gogebic-Iron County Airport, MI, United States (KIWD) 46-32N 090-08W
Apr 24, 2019 - 11:56 AM EDT / 2019.04.24 1556 UTC
Wind: from the SSW (200 degrees) at 15 MPH (13 KT) gusting to 23 MPH (20 KT):0
Visibility: 10 mile(s):0
Sky conditions: mostly cloudy
Temperature: 57.9 F (14.4 C)
Dew Point: 35.1 F (1.7 C)
Relative Humidity: 42%
Pressure (altimeter): 29.82 in. Hg (1009 hPa)
ob: KIWD 241556Z AUTO 20013G20KT 10SM BKN110 14/02 A2982 RMK AO2 SLP102 T01440017 PNO
cycle: 16

Station Type Date Time Source
KIWD TAF 2019/04/24 12:27 UTC NOAA

TAF KIWD 241124Z 2412/2512 19008KT P6SM BKN120
FM241600 21016G25KT P6SM BKN070
FM250400 22009KT P6SM VCSH BKN060
FM250700 24005KT P6SM BKN080
FM251000 27005KT P6SM SCT200

Example: see airport list